sensor_id;sensor_type;location;lat;lon;timestamp;temperature;humidity
12264;DHT22;6194;49.010;8.414;2023-04-06T00:00:39;1.20;99.90
12264;DHT22;6194;49.010;8.414;2023-04-06T00:03:04;1.00;99.90
12264;DHT22;6194;49.010;8.414;2023-04-06T00:05:31;1.00;99.90
12264;DHT22;6194;49.010;8.414;2023-04-06T00:07:59;0.90;99.90
12264;DHT22;6194;49.010;8.414;2023-04-06T00:10:25;0.90;99.90
12264;DHT22;6194;49.010;8.414;2023-04-06T00:12:51;0.80;99.90
12264;DHT22;6194;49.010;8.414;2023-04-06T00:15:17;0.80;99.90
12264;DHT22;6194;49.010;8.414;2023-04-06T00:17:43;0.80;99.90
12264;DHT22;6194;49.010;8.414;2023-04-06T00:20:09;0.70;99.90
12264;DHT22;6194;49.010;8.414;2023-04-06T00:22:34;0.70;99.90
12264;DHT22;6194;49.010;8.414;2023-04-06T00:25:01;0.70;99.90
12264;DHT22;6194;49.010;8.414;2023-04-06T00:27:26;0.70;99.90
12264;DHT22;6194;49.010;8.414;2023-04-06T00:29:52;0.70;99.90
12264;DHT22;6194;49.010;8.414;2023-04-06T00:32:18;0.70;99.90
12264;DHT22;6194;49.010;8.414;2023-04-06T00:34:43;0.80;99.90
12264;DHT22;6194;49.010;8.414;2023-04-06T00:37:11;0.70;99.90
12264;DHT22;6194;49.010;8.414;2023-04-06T00:39:36;0.70;99.90
12264;DHT22;6194;49.010;8.414;2023-04-06T00:42:10;0.60;99.90
12264;DHT22;6194;49.010;8.414;2023-04-06T00:44:37;0.60;99.90
12264;DHT22;6194;49.010;8.414;2023-04-06T00:47:03;0.60;99.90
12264;DHT22;6194;49.010;8.414;2023-04-06T00:49:29;0.70;99.90
12264;DHT22;6194;49.010;8.414;2023-04-06T00:51:55;0.70;99.90
12264;DHT22;6194;49.010;8.414;2023-04-06T00:54:20;0.60;99.90
12264;DHT22;6194;49.010;8.414;2023-04-06T00:56:46;0.60;99.90
12264;DHT22;6194;49.010;8.414;2023-04-06T00:59:12;0.60;99.90
12264;DHT22;6194;49.010;8.414;2023-04-06T01:01:37;0.60;99.90
12264;DHT22;6194;49.010;8.414;2023-04-06T01:04:03;0.60;99.90
12264;DHT22;6194;49.010;8.414;2023-04-06T01:06:29;0.50;99.90
12264;DHT22;6194;49.010;8.414;2023-04-06T01:08:55;0.60;99.90
12264;DHT22;6194;49.010;8.414;2023-04-06T01:11:20;0.70;99.90
12264;DHT22;6194;49.010;8.414;2023-04-06T01:13:46;0.70;99.90
12264;DHT22;6194;49.010;8.414;2023-04-06T01:16:12;0.70;99.90
12264;DHT22;6194;49.010;8.414;2023-04-06T01:18:38;0.80;99.90
12264;DHT22;6194;49.010;8.414;2023-04-06T01:21:04;0.80;99.90
12264;DHT22;6194;49.010;8.414;2023-04-06T01:23:30;0.60;99.90
12264;DHT22;6194;49.010;8.414;2023-04-06T01:25:55;0.60;99.90
12264;DHT22;6194;49.010;8.414;2023-04-06T01:28:21;0.60;99.90
12264;DHT22;6194;49.010;8.414;2023-04-06T01:30:46;0.60;99.90
12264;DHT22;6194;49.010;8.414;2023-04-06T01:33:12;0.80;99.90
12264;DHT22;6194;49.010;8.414;2023-04-06T01:35:38;0.60;99.90
12264;DHT22;6194;49.010;8.414;2023-04-06T01:38:03;0.60;99.90
12264;DHT22;6194;49.010;8.414;2023-04-06T01:40:29;0.50;99.90
12264;DHT22;6194;49.010;8.414;2023-04-06T01:42:54;0.50;99.90
12264;DHT22;6194;49.010;8.414;2023-04-06T01:45:20;0.60;99.90
12264;DHT22;6194;49.010;8.414;2023-04-06T01:47:46;0.60;99.90
12264;DHT22;6194;49.010;8.414;2023-04-06T01:50:11;0.70;99.90
12264;DHT22;6194;49.010;8.414;2023-04-06T01:52:37;0.60;99.90
12264;DHT22;6194;49.010;8.414;2023-04-06T01:55:03;0.60;99.90
12264;DHT22;6194;49.010;8.414;2023-04-06T01:57:29;0.60;99.90
12264;DHT22;6194;49.010;8.414;2023-04-06T01:59:55;0.50;99.90
12264;DHT22;6194;49.010;8.414;2023-04-06T02:02:20;0.90;99.90
12264;DHT22;6194;49.010;8.414;2023-04-06T02:04:46;0.50;99.90
12264;DHT22;6194;49.010;8.414;2023-04-06T02:07:11;0.50;99.90
12264;DHT22;6194;49.010;8.414;2023-04-06T02:09:37;0.50;99.90
12264;DHT22;6194;49.010;8.414;2023-04-06T02:12:03;0.50;99.90
12264;DHT22;6194;49.010;8.414;2023-04-06T02:14:28;0.20;99.90
12264;DHT22;6194;49.010;8.414;2023-04-06T02:16:54;0.10;99.90
12264;DHT22;6194;49.010;8.414;2023-04-06T02:19:20;0.00;99.90
12264;DHT22;6194;49.010;8.414;2023-04-06T02:21:45;-0.10;99.90
12264;DHT22;6194;49.010;8.414;2023-04-06T02:24:11;-0.20;99.90
12264;DHT22;6194;49.010;8.414;2023-04-06T02:26:37;-0.20;99.90
12264;DHT22;6194;49.010;8.414;2023-04-06T02:29:02;-0.20;99.90
12264;DHT22;6194;49.010;8.414;2023-04-06T02:31:28;0.00;99.90
12264;DHT22;6194;49.010;8.414;2023-04-06T02:33:54;0.00;99.90
12264;DHT22;6194;49.010;8.414;2023-04-06T02:36:20;0.00;99.90
12264;DHT22;6194;49.010;8.414;2023-04-06T02:38:45;0.10;99.90
12264;DHT22;6194;49.010;8.414;2023-04-06T02:41:11;0.10;99.90
12264;DHT22;6194;49.010;8.414;2023-04-06T02:43:36;0.10;99.90
12264;DHT22;6194;49.010;8.414;2023-04-06T02:46:02;0.10;99.90
12264;DHT22;6194;49.010;8.414;2023-04-06T02:48:28;0.10;99.90
12264;DHT22;6194;49.010;8.414;2023-04-06T02:50:53;0.10;99.90
12264;DHT22;6194;49.010;8.414;2023-04-06T02:53:19;0.00;99.90
12264;DHT22;6194;49.010;8.414;2023-04-06T02:55:45;0.00;99.90
12264;DHT22;6194;49.010;8.414;2023-04-06T02:58:11;0.00;99.90
12264;DHT22;6194;49.010;8.414;2023-04-06T03:00:37;0.00;99.90
12264;DHT22;6194;49.010;8.414;2023-04-06T03:03:02;-0.10;99.90
12264;DHT22;6194;49.010;8.414;2023-04-06T03:05:28;-0.10;99.90
12264;DHT22;6194;49.010;8.414;2023-04-06T03:07:54;-0.10;99.90
12264;DHT22;6194;49.010;8.414;2023-04-06T03:10:19;-0.20;99.90
12264;DHT22;6194;49.010;8.414;2023-04-06T03:12:45;-0.20;99.90
12264;DHT22;6194;49.010;8.414;2023-04-06T03:15:11;-0.10;99.90
12264;DHT22;6194;49.010;8.414;2023-04-06T03:17:36;-0.10;99.90
12264;DHT22;6194;49.010;8.414;2023-04-06T03:20:02;-0.20;99.90
12264;DHT22;6194;49.010;8.414;2023-04-06T03:22:29;-0.20;99.90
12264;DHT22;6194;49.010;8.414;2023-04-06T03:24:54;-0.20;99.90
12264;DHT22;6194;49.010;8.414;2023-04-06T03:27:20;-0.30;99.90
12264;DHT22;6194;49.010;8.414;2023-04-06T03:29:46;-0.30;99.90
12264;DHT22;6194;49.010;8.414;2023-04-06T03:32:11;-0.40;99.90
12264;DHT22;6194;49.010;8.414;2023-04-06T03:34:38;-0.50;99.90
12264;DHT22;6194;49.010;8.414;2023-04-06T03:37:04;-0.50;99.90
12264;DHT22;6194;49.010;8.414;2023-04-06T03:39:30;-0.50;99.90
12264;DHT22;6194;49.010;8.414;2023-04-06T03:41:55;-0.50;99.90
12264;DHT22;6194;49.010;8.414;2023-04-06T03:44:21;-0.50;99.90
12264;DHT22;6194;49.010;8.414;2023-04-06T03:46:47;-0.50;99.90
12264;DHT22;6194;49.010;8.414;2023-04-06T03:49:12;-0.60;99.90
12264;DHT22;6194;49.010;8.414;2023-04-06T03:51:38;-0.60;99.90
12264;DHT22;6194;49.010;8.414;2023-04-06T03:54:04;-0.60;99.90
12264;DHT22;6194;49.010;8.414;2023-04-06T03:56:30;-0.60;99.90
12264;DHT22;6194;49.010;8.414;2023-04-06T03:58:55;0.00;99.90
12264;DHT22;6194;49.010;8.414;2023-04-06T04:01:21;-0.60;99.90
12264;DHT22;6194;49.010;8.414;2023-04-06T04:03:47;-0.60;99.90
12264;DHT22;6194;49.010;8.414;2023-04-06T04:06:12;-0.70;99.90
12264;DHT22;6194;49.010;8.414;2023-04-06T04:08:38;-0.60;99.90
12264;DHT22;6194;49.010;8.414;2023-04-06T04:11:04;-0.70;99.90
12264;DHT22;6194;49.010;8.414;2023-04-06T04:13:29;-0.70;99.90
12264;DHT22;6194;49.010;8.414;2023-04-06T04:15:55;-0.70;99.90
12264;DHT22;6194;49.010;8.414;2023-04-06T04:18:21;-0.80;99.90
12264;DHT22;6194;49.010;8.414;2023-04-06T04:20:47;-0.70;99.90
12264;DHT22;6194;49.010;8.414;2023-04-06T04:23:15;-0.80;99.90
12264;DHT22;6194;49.010;8.414;2023-04-06T04:25:43;-0.90;99.90
12264;DHT22;6194;49.010;8.414;2023-04-06T04:28:09;-0.90;99.90
12264;DHT22;6194;49.010;8.414;2023-04-06T04:30:34;-0.90;99.90
12264;DHT22;6194;49.010;8.414;2023-04-06T04:33:00;-1.00;99.90
12264;DHT22;6194;49.010;8.414;2023-04-06T04:35:26;-0.50;99.90
12264;DHT22;6194;49.010;8.414;2023-04-06T04:37:52;-0.70;99.90
12264;DHT22;6194;49.010;8.414;2023-04-06T04:40:17;-0.80;99.90
12264;DHT22;6194;49.010;8.414;2023-04-06T04:42:43;-0.80;99.90
12264;DHT22;6194;49.010;8.414;2023-04-06T04:45:09;-0.80;99.90
12264;DHT22;6194;49.010;8.414;2023-04-06T04:47:35;-0.80;99.90
12264;DHT22;6194;49.010;8.414;2023-04-06T04:50:01;-0.90;99.90
12264;DHT22;6194;49.010;8.414;2023-04-06T04:52:26;-0.80;99.90
12264;DHT22;6194;49.010;8.414;2023-04-06T04:54:52;-0.90;99.90
12264;DHT22;6194;49.010;8.414;2023-04-06T04:57:17;-1.20;99.90
12264;DHT22;6194;49.010;8.414;2023-04-06T04:59:43;-0.80;99.90
12264;DHT22;6194;49.010;8.414;2023-04-06T05:02:09;-0.90;99.90
12264;DHT22;6194;49.010;8.414;2023-04-06T05:04:35;-0.90;99.90
12264;DHT22;6194;49.010;8.414;2023-04-06T05:07:05;-0.70;99.90
12264;DHT22;6194;49.010;8.414;2023-04-06T05:09:31;-0.60;99.90
12264;DHT22;6194;49.010;8.414;2023-04-06T05:11:58;-0.40;99.90
12264;DHT22;6194;49.010;8.414;2023-04-06T05:14:24;-0.30;99.90
12264;DHT22;6194;49.010;8.414;2023-04-06T05:16:50;-0.10;99.90
12264;DHT22;6194;49.010;8.414;2023-04-06T05:19:15;0.00;99.90
12264;DHT22;6194;49.010;8.414;2023-04-06T05:21:41;0.20;99.90
12264;DHT22;6194;49.010;8.414;2023-04-06T05:24:07;0.50;99.90
12264;DHT22;6194;49.010;8.414;2023-04-06T05:26:33;0.70;99.90
12264;DHT22;6194;49.010;8.414;2023-04-06T05:28:59;1.00;99.90
12264;DHT22;6194;49.010;8.414;2023-04-06T05:31:25;1.30;99.90
12264;DHT22;6194;49.010;8.414;2023-04-06T05:33:51;1.90;99.90
12264;DHT22;6194;49.010;8.414;2023-04-06T05:36:16;1.90;99.90
12264;DHT22;6194;49.010;8.414;2023-04-06T05:38:42;2.10;99.90
12264;DHT22;6194;49.010;8.414;2023-04-06T05:41:08;2.50;99.90
12264;DHT22;6194;49.010;8.414;2023-04-06T05:43:33;2.60;99.90
12264;DHT22;6194;49.010;8.414;2023-04-06T05:45:59;2.90;99.90
12264;DHT22;6194;49.010;8.414;2023-04-06T05:48:24;3.20;99.90
12264;DHT22;6194;49.010;8.414;2023-04-06T05:50:50;3.50;99.90
12264;DHT22;6194;49.010;8.414;2023-04-06T05:53:16;3.60;99.90
12264;DHT22;6194;49.010;8.414;2023-04-06T05:55:42;3.70;99.90
12264;DHT22;6194;49.010;8.414;2023-04-06T05:58:09;3.90;99.90
12264;DHT22;6194;49.010;8.414;2023-04-06T06:00:35;4.30;99.90
12264;DHT22;6194;49.010;8.414;2023-04-06T06:03:00;4.20;99.90
12264;DHT22;6194;49.010;8.414;2023-04-06T06:05:29;4.10;99.90
12264;DHT22;6194;49.010;8.414;2023-04-06T06:07:56;3.80;99.90
12264;DHT22;6194;49.010;8.414;2023-04-06T06:10:22;3.40;99.90
12264;DHT22;6194;49.010;8.414;2023-04-06T06:12:47;3.10;99.90
12264;DHT22;6194;49.010;8.414;2023-04-06T06:15:13;3.40;99.90
12264;DHT22;6194;49.010;8.414;2023-04-06T06:17:39;3.60;99.90
12264;DHT22;6194;49.010;8.414;2023-04-06T06:20:07;4.10;99.90
12264;DHT22;6194;49.010;8.414;2023-04-06T06:22:33;4.50;99.90
12264;DHT22;6194;49.010;8.414;2023-04-06T06:24:59;4.50;99.90
12264;DHT22;6194;49.010;8.414;2023-04-06T06:27:24;4.50;99.90
12264;DHT22;6194;49.010;8.414;2023-04-06T06:29:50;4.70;99.90
12264;DHT22;6194;49.010;8.414;2023-04-06T06:32:16;4.50;99.90
12264;DHT22;6194;49.010;8.414;2023-04-06T06:34:41;4.60;99.90
12264;DHT22;6194;49.010;8.414;2023-04-06T06:37:07;4.20;99.90
12264;DHT22;6194;49.010;8.414;2023-04-06T06:39:33;4.10;99.90
12264;DHT22;6194;49.010;8.414;2023-04-06T06:41:58;4.10;99.90
12264;DHT22;6194;49.010;8.414;2023-04-06T06:44:27;4.00;99.90
12264;DHT22;6194;49.010;8.414;2023-04-06T06:46:52;3.90;99.90
12264;DHT22;6194;49.010;8.414;2023-04-06T06:49:18;3.90;99.90
12264;DHT22;6194;49.010;8.414;2023-04-06T06:51:44;3.90;99.90
12264;DHT22;6194;49.010;8.414;2023-04-06T06:54:12;3.90;99.90
12264;DHT22;6194;49.010;8.414;2023-04-06T06:56:38;4.00;99.90
12264;DHT22;6194;49.010;8.414;2023-04-06T06:59:04;4.10;99.90
12264;DHT22;6194;49.010;8.414;2023-04-06T07:01:31;4.20;99.90
12264;DHT22;6194;49.010;8.414;2023-04-06T07:03:57;4.30;99.90
12264;DHT22;6194;49.010;8.414;2023-04-06T07:06:23;4.30;99.90
12264;DHT22;6194;49.010;8.414;2023-04-06T07:08:48;4.50;99.90
12264;DHT22;6194;49.010;8.414;2023-04-06T07:11:14;4.60;99.90
12264;DHT22;6194;49.010;8.414;2023-04-06T07:13:40;4.60;99.90
12264;DHT22;6194;49.010;8.414;2023-04-06T07:16:05;4.70;99.90
12264;DHT22;6194;49.010;8.414;2023-04-06T07:18:31;4.80;99.90
12264;DHT22;6194;49.010;8.414;2023-04-06T07:20:57;4.90;99.90
12264;DHT22;6194;49.010;8.414;2023-04-06T07:23:22;5.30;99.90
12264;DHT22;6194;49.010;8.414;2023-04-06T07:25:49;5.10;99.90
12264;DHT22;6194;49.010;8.414;2023-04-06T07:28:17;5.20;99.90
12264;DHT22;6194;49.010;8.414;2023-04-06T07:30:43;5.30;99.90
12264;DHT22;6194;49.010;8.414;2023-04-06T07:33:08;5.50;99.90
12264;DHT22;6194;49.010;8.414;2023-04-06T07:35:34;5.60;99.90
12264;DHT22;6194;49.010;8.414;2023-04-06T07:38:02;5.80;99.90
12264;DHT22;6194;49.010;8.414;2023-04-06T07:40:28;5.70;99.90
12264;DHT22;6194;49.010;8.414;2023-04-06T07:42:53;5.80;99.90
12264;DHT22;6194;49.010;8.414;2023-04-06T07:45:19;5.90;99.90
12264;DHT22;6194;49.010;8.414;2023-04-06T07:47:45;6.00;99.90
12264;DHT22;6194;49.010;8.414;2023-04-06T07:50:11;6.00;99.90
12264;DHT22;6194;49.010;8.414;2023-04-06T07:52:38;6.00;99.90
12264;DHT22;6194;49.010;8.414;2023-04-06T07:55:04;6.20;99.90
12264;DHT22;6194;49.010;8.414;2023-04-06T07:57:29;6.40;99.90
12264;DHT22;6194;49.010;8.414;2023-04-06T07:59:55;6.50;99.90
12264;DHT22;6194;49.010;8.414;2023-04-06T08:02:21;6.50;99.90
12264;DHT22;6194;49.010;8.414;2023-04-06T08:04:47;6.70;99.90
12264;DHT22;6194;49.010;8.414;2023-04-06T08:07:13;6.90;99.90
12264;DHT22;6194;49.010;8.414;2023-04-06T08:09:39;6.90;99.90
12264;DHT22;6194;49.010;8.414;2023-04-06T08:12:05;7.20;99.90
12264;DHT22;6194;49.010;8.414;2023-04-06T08:14:30;7.10;99.90
12264;DHT22;6194;49.010;8.414;2023-04-06T08:16:56;7.10;99.90
12264;DHT22;6194;49.010;8.414;2023-04-06T08:19:22;7.20;99.90
12264;DHT22;6194;49.010;8.414;2023-04-06T08:21:48;7.20;99.90
12264;DHT22;6194;49.010;8.414;2023-04-06T08:24:13;7.30;99.90
12264;DHT22;6194;49.010;8.414;2023-04-06T08:26:39;7.30;99.90
12264;DHT22;6194;49.010;8.414;2023-04-06T08:29:05;7.30;99.90
12264;DHT22;6194;49.010;8.414;2023-04-06T08:31:33;7.50;99.90
12264;DHT22;6194;49.010;8.414;2023-04-06T08:33:59;7.80;99.90
12264;DHT22;6194;49.010;8.414;2023-04-06T08:36:24;7.70;99.90
12264;DHT22;6194;49.010;8.414;2023-04-06T08:38:50;7.70;99.90
12264;DHT22;6194;49.010;8.414;2023-04-06T08:41:16;8.00;99.90
12264;DHT22;6194;49.010;8.414;2023-04-06T08:46:11;8.00;99.90
12264;DHT22;6194;49.010;8.414;2023-04-06T08:48:38;8.10;99.90
12264;DHT22;6194;49.010;8.414;2023-04-06T08:51:05;8.20;99.90
12264;DHT22;6194;49.010;8.414;2023-04-06T08:53:31;8.30;99.90
12264;DHT22;6194;49.010;8.414;2023-04-06T08:55:58;8.50;99.90
12264;DHT22;6194;49.010;8.414;2023-04-06T08:58:24;8.60;99.90
12264;DHT22;6194;49.010;8.414;2023-04-06T09:00:51;8.80;99.90
12264;DHT22;6194;49.010;8.414;2023-04-06T09:03:17;8.90;99.90
12264;DHT22;6194;49.010;8.414;2023-04-06T09:05:44;9.00;99.90
12264;DHT22;6194;49.010;8.414;2023-04-06T09:08:11;9.10;99.90
12264;DHT22;6194;49.010;8.414;2023-04-06T09:10:40;9.20;99.90
12264;DHT22;6194;49.010;8.414;2023-04-06T09:13:07;9.40;99.90
12264;DHT22;6194;49.010;8.414;2023-04-06T09:15:33;9.60;99.90
12264;DHT22;6194;49.010;8.414;2023-04-06T09:17:59;9.80;99.90
12264;DHT22;6194;49.010;8.414;2023-04-06T09:20:25;9.90;99.90
12264;DHT22;6194;49.010;8.414;2023-04-06T09:22:53;9.90;99.90
12264;DHT22;6194;49.010;8.414;2023-04-06T09:25:21;9.90;99.90
12264;DHT22;6194;49.010;8.414;2023-04-06T09:27:48;9.90;99.90
12264;DHT22;6194;49.010;8.414;2023-04-06T09:30:15;9.90;99.90
12264;DHT22;6194;49.010;8.414;2023-04-06T09:32:52;9.90;99.90
12264;DHT22;6194;49.010;8.414;2023-04-06T09:35:19;10.00;99.90
12264;DHT22;6194;49.010;8.414;2023-04-06T09:37:49;10.20;99.90
12264;DHT22;6194;49.010;8.414;2023-04-06T09:40:15;10.30;99.90
12264;DHT22;6194;49.010;8.414;2023-04-06T09:42:45;10.40;99.90
12264;DHT22;6194;49.010;8.414;2023-04-06T09:45:12;10.60;99.90
12264;DHT22;6194;49.010;8.414;2023-04-06T09:47:39;10.70;99.90
12264;DHT22;6194;49.010;8.414;2023-04-06T09:50:05;10.70;99.90
12264;DHT22;6194;49.010;8.414;2023-04-06T09:52:37;10.80;99.80
12264;DHT22;6194;49.010;8.414;2023-04-06T09:55:05;10.90;99.60
12264;DHT22;6194;49.010;8.414;2023-04-06T09:58:04;11.10;98.20
12264;DHT22;6194;49.010;8.414;2023-04-06T10:00:32;11.20;97.90
12264;DHT22;6194;49.010;8.414;2023-04-06T10:08:13;11.50;96.50
12264;DHT22;6194;49.010;8.414;2023-04-06T10:10:41;11.70;95.90
12264;DHT22;6194;49.010;8.414;2023-04-06T10:13:07;11.70;95.00
12264;DHT22;6194;49.010;8.414;2023-04-06T10:15:36;11.80;94.70
12264;DHT22;6194;49.010;8.414;2023-04-06T10:18:03;11.90;93.90
12264;DHT22;6194;49.010;8.414;2023-04-06T10:20:37;11.90;94.70
12264;DHT22;6194;49.010;8.414;2023-04-06T10:23:22;11.90;94.50
12264;DHT22;6194;49.010;8.414;2023-04-06T10:25:57;12.10;94.30
12264;DHT22;6194;49.010;8.414;2023-04-06T10:28:24;12.20;92.70
12264;DHT22;6194;49.010;8.414;2023-04-06T10:30:57;12.30;93.50
12264;DHT22;6194;49.010;8.414;2023-04-06T10:33:22;12.50;92.80
12264;DHT22;6194;49.010;8.414;2023-04-06T10:35:48;12.70;92.70
12264;DHT22;6194;49.010;8.414;2023-04-06T10:38:14;12.60;91.70
12264;DHT22;6194;49.010;8.414;2023-04-06T10:40:41;12.50;91.20
12264;DHT22;6194;49.010;8.414;2023-04-06T10:45:37;12.40;90.40
12264;DHT22;6194;49.010;8.414;2023-04-06T10:48:17;12.30;90.50
12264;DHT22;6194;49.010;8.414;2023-04-06T10:50:50;12.40;88.70
12264;DHT22;6194;49.010;8.414;2023-04-06T10:53:26;12.70;85.70
12264;DHT22;6194;49.010;8.414;2023-04-06T10:55:54;12.60;86.50
12264;DHT22;6194;49.010;8.414;2023-04-06T10:58:24;12.70;85.60
12264;DHT22;6194;49.010;8.414;2023-04-06T11:00:50;12.80;82.30
12264;DHT22;6194;49.010;8.414;2023-04-06T11:03:16;13.00;81.70
12264;DHT22;6194;49.010;8.414;2023-04-06T11:05:46;13.20;81.10
12264;DHT22;6194;49.010;8.414;2023-04-06T11:08:42;13.30;80.20
12264;DHT22;6194;49.010;8.414;2023-04-06T11:11:10;13.70;78.80
12264;DHT22;6194;49.010;8.414;2023-04-06T11:13:42;13.90;79.10
12264;DHT22;6194;49.010;8.414;2023-04-06T11:16:16;14.10;79.50
12264;DHT22;6194;49.010;8.414;2023-04-06T11:21:44;14.50;76.60
12264;DHT22;6194;49.010;8.414;2023-04-06T11:29:21;14.50;75.80
12264;DHT22;6194;49.010;8.414;2023-04-06T11:31:50;14.80;75.60
12264;DHT22;6194;49.010;8.414;2023-04-06T11:34:18;15.30;75.30
12264;DHT22;6194;49.010;8.414;2023-04-06T11:36:45;15.50;73.50
12264;DHT22;6194;49.010;8.414;2023-04-06T11:39:22;15.10;73.50
12264;DHT22;6194;49.010;8.414;2023-04-06T11:41:57;14.90;73.50
12264;DHT22;6194;49.010;8.414;2023-04-06T11:46:58;14.90;71.20
12264;DHT22;6194;49.010;8.414;2023-04-06T11:49:31;14.60;72.10
12264;DHT22;6194;49.010;8.414;2023-04-06T11:51:58;14.70;72.50
12264;DHT22;6194;49.010;8.414;2023-04-06T11:54:34;15.00;72.20
12264;DHT22;6194;49.010;8.414;2023-04-06T11:57:00;15.30;70.20
12264;DHT22;6194;49.010;8.414;2023-04-06T11:59:27;15.60;70.00
12264;DHT22;6194;49.010;8.414;2023-04-06T12:01:53;15.80;67.80
12264;DHT22;6194;49.010;8.414;2023-04-06T12:04:19;16.00;67.50
12264;DHT22;6194;49.010;8.414;2023-04-06T12:06:45;16.50;66.70
12264;DHT22;6194;49.010;8.414;2023-04-06T12:09:10;16.80;64.70
12264;DHT22;6194;49.010;8.414;2023-04-06T12:11:36;16.80;65.70
12264;DHT22;6194;49.010;8.414;2023-04-06T12:14:02;16.30;64.70
12264;DHT22;6194;49.010;8.414;2023-04-06T12:16:30;16.70;63.40
12264;DHT22;6194;49.010;8.414;2023-04-06T12:18:56;16.00;63.80
12264;DHT22;6194;49.010;8.414;2023-04-06T12:21:22;16.20;64.00
12264;DHT22;6194;49.010;8.414;2023-04-06T12:23:47;16.40;64.40
12264;DHT22;6194;49.010;8.414;2023-04-06T12:26:13;16.60;63.50
12264;DHT22;6194;49.010;8.414;2023-04-06T12:28:39;17.00;63.20
12264;DHT22;6194;49.010;8.414;2023-04-06T12:31:05;17.10;62.60
12264;DHT22;6194;49.010;8.414;2023-04-06T12:33:30;17.30;60.90
12264;DHT22;6194;49.010;8.414;2023-04-06T12:35:56;17.10;60.20
12264;DHT22;6194;49.010;8.414;2023-04-06T12:38:22;17.10;61.20
12264;DHT22;6194;49.010;8.414;2023-04-06T12:40:47;16.80;60.70
12264;DHT22;6194;49.010;8.414;2023-04-06T12:43:13;16.30;60.40
12264;DHT22;6194;49.010;8.414;2023-04-06T12:45:39;16.20;60.10
12264;DHT22;6194;49.010;8.414;2023-04-06T12:48:06;16.10;59.40
12264;DHT22;6194;49.010;8.414;2023-04-06T12:50:32;16.00;58.80
12264;DHT22;6194;49.010;8.414;2023-04-06T12:52:58;16.10;58.60
12264;DHT22;6194;49.010;8.414;2023-04-06T12:55:23;16.10;58.60
12264;DHT22;6194;49.010;8.414;2023-04-06T12:57:50;16.10;58.50
12264;DHT22;6194;49.010;8.414;2023-04-06T13:00:16;16.00;57.90
12264;DHT22;6194;49.010;8.414;2023-04-06T13:02:42;16.00;58.70
12264;DHT22;6194;49.010;8.414;2023-04-06T13:05:12;15.90;58.10
12264;DHT22;6194;49.010;8.414;2023-04-06T13:07:38;16.10;57.60
12264;DHT22;6194;49.010;8.414;2023-04-06T13:10:04;16.20;57.50
12264;DHT22;6194;49.010;8.414;2023-04-06T13:12:30;16.10;57.80
12264;DHT22;6194;49.010;8.414;2023-04-06T13:14:56;16.10;57.50
12264;DHT22;6194;49.010;8.414;2023-04-06T13:17:21;16.00;56.80
12264;DHT22;6194;49.010;8.414;2023-04-06T13:19:47;16.10;57.40
12264;DHT22;6194;49.010;8.414;2023-04-06T13:22:13;16.30;56.00
12264;DHT22;6194;49.010;8.414;2023-04-06T13:24:39;16.40;55.30
12264;DHT22;6194;49.010;8.414;2023-04-06T13:27:04;16.70;53.30
12264;DHT22;6194;49.010;8.414;2023-04-06T13:29:30;16.60;51.90
12264;DHT22;6194;49.010;8.414;2023-04-06T13:31:56;16.70;52.00
12264;DHT22;6194;49.010;8.414;2023-04-06T13:34:21;16.50;52.60
12264;DHT22;6194;49.010;8.414;2023-04-06T13:36:47;16.40;52.80
12264;DHT22;6194;49.010;8.414;2023-04-06T13:39:13;16.60;52.20
12264;DHT22;6194;49.010;8.414;2023-04-06T13:41:38;16.60;51.90
12264;DHT22;6194;49.010;8.414;2023-04-06T13:44:05;16.90;51.40
12264;DHT22;6194;49.010;8.414;2023-04-06T13:46:31;17.20;50.70
12264;DHT22;6194;49.010;8.414;2023-04-06T13:48:57;17.20;49.90
12264;DHT22;6194;49.010;8.414;2023-04-06T13:51:23;17.40;50.00
12264;DHT22;6194;49.010;8.414;2023-04-06T13:53:48;17.60;49.70
12264;DHT22;6194;49.010;8.414;2023-04-06T13:56:17;18.10;50.10
12264;DHT22;6194;49.010;8.414;2023-04-06T13:58:43;17.90;49.00
12264;DHT22;6194;49.010;8.414;2023-04-06T14:01:09;17.80;49.20
12264;DHT22;6194;49.010;8.414;2023-04-06T14:03:35;17.70;49.20
12264;DHT22;6194;49.010;8.414;2023-04-06T14:06:01;17.50;49.90
12264;DHT22;6194;49.010;8.414;2023-04-06T14:08:27;17.40;49.40
12264;DHT22;6194;49.010;8.414;2023-04-06T14:10:52;17.10;50.00
12264;DHT22;6194;49.010;8.414;2023-04-06T14:13:19;17.00;49.80
12264;DHT22;6194;49.010;8.414;2023-04-06T14:15:45;16.90;50.60
12264;DHT22;6194;49.010;8.414;2023-04-06T14:18:10;16.60;51.40
12264;DHT22;6194;49.010;8.414;2023-04-06T14:20:36;16.70;51.60
12264;DHT22;6194;49.010;8.414;2023-04-06T14:23:02;17.20;51.10
12264;DHT22;6194;49.010;8.414;2023-04-06T14:25:28;17.10;52.10
12264;DHT22;6194;49.010;8.414;2023-04-06T14:27:56;17.20;52.70
12264;DHT22;6194;49.010;8.414;2023-04-06T14:30:22;17.40;53.20
12264;DHT22;6194;49.010;8.414;2023-04-06T14:32:48;17.10;53.20
12264;DHT22;6194;49.010;8.414;2023-04-06T14:35:13;16.90;53.40
12264;DHT22;6194;49.010;8.414;2023-04-06T14:37:39;17.00;53.40
12264;DHT22;6194;49.010;8.414;2023-04-06T14:40:05;16.90;54.20
12264;DHT22;6194;49.010;8.414;2023-04-06T14:42:31;16.90;54.50
12264;DHT22;6194;49.010;8.414;2023-04-06T14:44:57;16.80;55.40
12264;DHT22;6194;49.010;8.414;2023-04-06T14:47:23;17.20;55.60
12264;DHT22;6194;49.010;8.414;2023-04-06T14:49:52;16.60;55.60
12264;DHT22;6194;49.010;8.414;2023-04-06T14:52:18;16.70;55.50
12264;DHT22;6194;49.010;8.414;2023-04-06T14:54:44;16.60;55.60
12264;DHT22;6194;49.010;8.414;2023-04-06T14:57:10;16.30;55.60
12264;DHT22;6194;49.010;8.414;2023-04-06T14:59:36;16.30;55.70
12264;DHT22;6194;49.010;8.414;2023-04-06T15:02:02;16.30;55.80
12264;DHT22;6194;49.010;8.414;2023-04-06T15:04:28;16.30;55.70
12264;DHT22;6194;49.010;8.414;2023-04-06T15:06:54;16.30;55.90
12264;DHT22;6194;49.010;8.414;2023-04-06T15:09:20;16.30;55.80
12264;DHT22;6194;49.010;8.414;2023-04-06T15:11:46;16.40;56.00
12264;DHT22;6194;49.010;8.414;2023-04-06T15:14:12;16.30;56.40
12264;DHT22;6194;49.010;8.414;2023-04-06T15:16:37;16.10;56.60
12264;DHT22;6194;49.010;8.414;2023-04-06T15:19:03;16.50;56.70
12264;DHT22;6194;49.010;8.414;2023-04-06T15:21:28;16.30;56.80
12264;DHT22;6194;49.010;8.414;2023-04-06T15:23:55;16.20;56.50
12264;DHT22;6194;49.010;8.414;2023-04-06T15:26:21;15.80;57.20
12264;DHT22;6194;49.010;8.414;2023-04-06T15:28:47;15.70;57.70
12264;DHT22;6194;49.010;8.414;2023-04-06T15:31:16;15.60;58.10
12264;DHT22;6194;49.010;8.414;2023-04-06T15:33:42;15.50;58.60
12264;DHT22;6194;49.010;8.414;2023-04-06T15:38:47;15.60;59.10
12264;DHT22;6194;49.010;8.414;2023-04-06T15:41:13;15.60;59.10
12264;DHT22;6194;49.010;8.414;2023-04-06T15:43:39;15.70;58.90
12264;DHT22;6194;49.010;8.414;2023-04-06T15:46:05;15.60;59.00
12264;DHT22;6194;49.010;8.414;2023-04-06T15:48:31;15.40;59.00
12264;DHT22;6194;49.010;8.414;2023-04-06T15:50:57;15.30;59.00
12264;DHT22;6194;49.010;8.414;2023-04-06T15:53:23;15.20;59.60
12264;DHT22;6194;49.010;8.414;2023-04-06T15:55:48;15.10;60.50
12264;DHT22;6194;49.010;8.414;2023-04-06T15:58:14;15.10;61.20
12264;DHT22;6194;49.010;8.414;2023-04-06T16:00:40;14.70;60.70
12264;DHT22;6194;49.010;8.414;2023-04-06T16:03:05;14.90;62.00
12264;DHT22;6194;49.010;8.414;2023-04-06T16:05:31;14.70;61.90
12264;DHT22;6194;49.010;8.414;2023-04-06T16:07:56;14.80;62.20
12264;DHT22;6194;49.010;8.414;2023-04-06T16:10:22;14.70;62.20